Galway Airport


Codes: EICM/GWY
Name: Galway Airport
City: Galway
Country: Ireland
Elevation: 81 ft.
Website:
Wikipedia:

Photos at Galway Airport


   Photos courtesy of SpottingLog. You can add your own sightings and photos by signing up for a free trial today.



No photos found.

Weather at Galway Airport


Time (UTC)DescriptionTempratureWindCloud coverageVisibilityPressureHumidity
26-Jun-2024 00:00Scattered Clouds12°C4 mph, NE43%10000m1020hPa88%
26-Jun-2024 03:00Broken Clouds10°C4 mph, NE74%10000m1018hPa81%
26-Jun-2024 06:00Broken Clouds10°C4 mph, E54%10000m1015hPa80%
26-Jun-2024 09:00Overcast Clouds16°C9 mph, S99%10000m1012hPa73%
26-Jun-2024 12:00Overcast Clouds19°C11 mph, SW100%10000m1010hPa70%
26-Jun-2024 15:00Light Rain14°C18 mph, SW100%10000m1008hPa84%
26-Jun-2024 18:00Light Rain14°C16 mph, S100%10000m1005hPa82%
26-Jun-2024 21:00Light Rain14°C22 mph, SW100%10000m1005hPa83%
27-Jun-2024 00:00Light Rain14°C25 mph, SW97%10000m1003hPa81%
27-Jun-2024 03:00Light Rain13°C25 mph, SW100%10000m1002hPa87%
27-Jun-2024 06:00Light Rain12°C27 mph, SW100%10000m1001hPa90%
27-Jun-2024 09:00Light Rain13°C27 mph, W100%10000m1001hPa87%
27-Jun-2024 12:00Light Rain14°C27 mph, W100%10000m1003hPa85%
27-Jun-2024 15:00Light Rain13°C25 mph, W100%10000m1005hPa84%
27-Jun-2024 18:00Light Rain13°C25 mph, W96%10000m1008hPa81%
27-Jun-2024 21:00Overcast Clouds12°C20 mph, W99%10000m1010hPa79%
28-Jun-2024 00:00Broken Clouds11°C18 mph, W75%10000m1012hPa78%
28-Jun-2024 03:00Scattered Clouds10°C13 mph, W47%10000m1013hPa80%
28-Jun-2024 06:00Broken Clouds12°C11 mph, W67%10000m1014hPa73%
28-Jun-2024 09:00Light Rain14°C16 mph, W99%10000m1014hPa70%
28-Jun-2024 12:00Overcast Clouds15°C18 mph, SW91%10000m1014hPa70%
28-Jun-2024 15:00Light Rain13°C11 mph, SW100%10000m1013hPa79%
28-Jun-2024 18:00Light Rain12°C11 mph, S100%10000m1010hPa93%
28-Jun-2024 21:00Light Rain13°C16 mph, S100%10000m1009hPa93%
29-Jun-2024 00:00Light Rain14°C16 mph, SW100%10000m1008hPa95%
29-Jun-2024 03:00Light Rain14°C16 mph, SW100%1466m1008hPa97%
29-Jun-2024 06:00Light Rain14°C11 mph, W100%5787m1007hPa98%
29-Jun-2024 09:00Light Rain12°C11 mph, N100%10000m1009hPa92%
29-Jun-2024 12:00Broken Clouds16°C11 mph, NW79%10000m1009hPa60%
29-Jun-2024 15:00Clear Sky16°C16 mph, NW0%10000m1009hPa59%
29-Jun-2024 18:00Few Clouds14°C13 mph, NW12%10000m1010hPa66%
29-Jun-2024 21:00Overcast Clouds11°C7 mph, NW100%10000m1010hPa76%
30-Jun-2024 00:00Broken Clouds9°C9 mph, W59%10000m1010hPa86%
30-Jun-2024 03:00Overcast Clouds11°C11 mph, W100%10000m1009hPa81%
30-Jun-2024 06:00Overcast Clouds12°C13 mph, W100%10000m1008hPa82%
30-Jun-2024 09:00Light Rain14°C16 mph, W92%10000m1007hPa73%
30-Jun-2024 12:00Light Rain13°C18 mph, W96%10000m1007hPa80%
30-Jun-2024 15:00Light Rain14°C18 mph, W100%10000m1006hPa74%
30-Jun-2024 18:00Broken Clouds14°C16 mph, W73%10000m1006hPa72%
30-Jun-2024 21:00Scattered Clouds13°C9 mph, W44%10000m1006hPa88%